Rechercher aéroport 
image banner adimage banner adimage banner ad
image banner ad

A30 - Scott Valley

Situé à Fort Jones, United States

ICAO - A30, IATA -

Données fournies par Airmate  

Information générale

Coordonnées: N41°33'28" W122°51'18"
Élévation : 2728 feet MSL.
Variation magnétique : 18° East
Voir autres Aéroports à California

Données opérationnelles

Special qualification required
Heure actuelle UTC:
Heure actuelle locale:
Météo à : KSIY - Siskiyou County ( 41 km )
METAR: KSIY 251153Z AUTO 05004KT 10SM CLR 20/07 A3005 RMK AO2 SLP154 T02000067 10267 20194 51004
Voir NOTAMs / SUP AIP / TFR affectant cet aéroport [VIEW]
Fréquences de communication: [VIEW]

Pistes:

Identifiant RWYQFULongueur (ft)Largeur (ft)SurfaceLDA (ft)
16370050ASPH
34370050ASPH

Coordonnées de l'aéroport

Adresse: Fort Jones United States

Vue satellite de A30